Time;durP1;ratioP1;P1;durP2;ratioP2;P2;SDS_P1;SDS_P2;PMS_P1;PMS_P2;Temp;Humidity;BMP_temperature;BMP_pressure;BME280_temperature;BME280_humidity;BME280_pressure;Samples;Min_cycle;Max_cycle;Signal;HPM_P1;HPM_P2
2022/01/26 00:00:30;;;;;;;;;52.00;38.00;;;;;8.14;63.25;103148.91;5084814;27;61865;-80
2022/01/26 00:05:53;;;;;;;;;61.33;43.00;;;;;8.03;63.17;103141.72;5084213;28;61804;-80
2022/01/26 00:08:23;;;;;;;;;45.33;35.33;;;;;8.05;63.59;103147.13;5084813;27;61873;-80
2022/01/26 00:10:49;;;;;;;;;52.00;39.00;;;;;8.06;63.71;103152.50;5084680;28;61962;-80
2022/01/26 00:13:14;;;;;;;;;35.33;25.00;;;;;8.09;63.07;103157.09;5083143;28;62330;-80
2022/01/26 00:15:40;;;;;;;;;58.33;41.33;;;;;8.07;63.35;103148.19;5083699;28;61836;-80
2022/01/26 00:18:05;;;;;;;;;47.00;32.00;;;;;8.12;63.98;103152.13;5082977;28;61881;-80
2022/01/26 00:20:48;;;;;;;;;53.00;38.67;;;;;8.16;63.12;103149.97;5084835;28;61935;-80
2022/01/26 00:26:25;;;;;;;;;47.33;39.67;;;;;8.17;62.73;103145.63;5083413;28;61880;-80
2022/01/26 00:40:10;;;;;;;;;51.33;37.33;;;;;8.27;63.42;103153.56;5084459;28;61981;-79
2022/01/26 00:42:39;;;;;;;;;46.33;39.33;;;;;8.24;63.63;103152.34;5084329;28;61887;-80
2022/01/26 00:45:06;;;;;;;;;52.67;38.67;;;;;8.27;63.35;103153.56;5083255;28;61878;-80
2022/01/26 00:47:31;;;;;;;;;43.00;32.33;;;;;8.29;63.24;103145.81;5083191;28;61825;-80
2022/01/26 00:50:02;;;;;;;;;57.33;39.67;;;;;8.33;63.79;103151.50;5084108;28;61827;-80
2022/01/26 00:52:52;;;;;;;;;40.75;33.75;;;;;8.37;63.03;103144.84;5082566;28;61914;-80
2022/01/26 00:55:17;;;;;;;;;51.00;37.00;;;;;8.43;61.79;103163.75;5082381;27;62206;-80
2022/01/26 00:57:43;;;;;;;;;40.33;31.67;;;;;8.43;62.58;103165.47;5083405;28;62876;-80
2022/01/26 01:00:17;;;;;;;;;50.00;36.33;;;;;8.48;62.25;103154.63;5083871;28;61924;-80
2022/01/26 01:02:42;;;;;;;;;52.67;35.00;;;;;8.48;62.27;103154.63;5083799;27;61856;-80
2022/01/26 01:05:18;;;;;;;;;42.00;33.33;;;;;8.43;61.85;103161.13;5083751;28;62075;-80
2022/01/26 01:07:45;;;;;;;;;33.00;25.25;;;;;8.49;62.24;103156.47;5083461;28;62153;-80
2022/01/26 01:10:11;;;;;;;;;49.00;36.67;;;;;8.54;61.29;103147.31;5083404;28;61926;-80
2022/01/26 01:12:42;;;;;;;;;35.67;28.67;;;;;8.54;61.66;103147.31;5082431;28;61963;-80
2022/01/26 01:15:09;;;;;;;;;54.00;41.67;;;;;8.52;62.10;103133.19;5099799;27;61837;-80
2022/01/26 01:17:42;;;;;;;;;65.33;42.00;;;;;8.62;62.08;103147.13;5098414;27;63720;-80
2022/01/26 01:28:09;;;;;;;;;51.00;39.33;;;;;8.75;61.13;103137.88;5082774;27;62125;-80
2022/01/26 01:30:39;;;;;;;;;58.00;42.33;;;;;8.84;61.25;103145.63;5083232;27;61771;-80
2022/01/26 01:35:33;;;;;;;;;45.67;34.33;;;;;8.89;61.16;103141.75;5083478;28;62075;-80
2022/01/26 01:38:07;;;;;;;;;44.33;38.33;;;;;8.94;60.35;103150.00;5079858;28;62845;-80
2022/01/26 01:40:33;;;;;;;;;48.33;39.33;;;;;8.93;60.46;103140.28;5083160;27;61822;-80
2022/01/26 01:42:59;;;;;;;;;37.25;32.25;;;;;8.92;60.70;103146.31;5083382;27;61851;-80
2022/01/26 01:45:36;;;;;;;;;57.33;44.00;;;;;8.87;60.27;103147.59;5082103;28;62062;-80
2022/01/26 01:48:03;;;;;;;;;36.25;31.50;;;;;8.83;60.09;103150.75;5080848;28;64842;-80
2022/01/26 01:50:29;;;;;;;;;46.00;38.25;;;;;8.82;60.26;103151.53;5083169;27;61844;-80
2022/01/26 01:53:02;;;;;;;;;49.50;36.25;;;;;8.76;60.56;103158.06;5081364;28;61775;-80
2022/01/26 01:55:29;;;;;;;;;46.50;33.75;;;;;8.81;60.18;103158.47;5082804;27;61805;-80
2022/01/26 01:57:56;;;;;;;;;44.00;34.50;;;;;8.82;60.42;103160.28;5081013;28;63971;-80
2022/01/26 02:00:23;;;;;;;;;40.75;35.00;;;;;8.84;60.00;103161.34;5098765;27;61991;-80
2022/01/26 02:02:49;;;;;;;;;39.50;33.25;;;;;8.70;59.85;103161.81;5082798;27;61772;-80
2022/01/26 02:05:14;;;;;;;;;42.00;37.00;;;;;8.63;60.10;103157.69;5082935;28;61767;-80
2022/01/26 02:07:39;;;;;;;;;52.75;34.50;;;;;8.69;60.52;103165.19;5081650;27;61790;-80
2022/01/26 02:10:05;;;;;;;;;38.67;29.67;;;;;8.70;59.88;103164.44;5082772;27;61821;-80
2022/01/26 02:12:33;;;;;;;;;38.00;33.00;;;;;8.72;59.85;103168.09;5081361;28;61807;-80
2022/01/26 02:15:08;;;;;;;;;44.75;34.00;;;;;8.73;59.99;103164.69;5081729;28;62115;-80
2022/01/26 02:18:10;;;;;;;;;43.75;32.50;;;;;8.76;60.03;103152.81;5080504;28;64623;-80
2022/01/26 02:55:51;;;;;;;;;47.75;40.00;;;;;8.88;60.14;103155.59;4999272;28;62322;-80
2022/01/26 03:06:48;;;;;;;;;48.50;33.50;;;;;9.08;59.28;103140.72;5048082;28;62137;-80
2022/01/26 03:09:17;;;;;;;;;56.50;42.50;;;;;9.11;60.03;103133.16;5059786;28;61867;-80
2022/01/26 03:11:45;;;;;;;;;45.00;39.00;;;;;9.14;59.71;103138.66;5058295;28;61920;-80
2022/01/26 03:17:05;;;;;;;;;48.50;35.50;;;;;9.19;59.95;103133.06;5058920;28;62457;-80
2022/01/26 03:19:48;;;;;;;;;44.00;33.50;;;;;9.23;59.47;103126.34;5064097;28;61987;-80
2022/01/26 03:35:50;;;;;;;;;64.33;41.67;;;;;8.67;61.41;103122.25;5061738;28;61828;-80
2022/01/26 03:38:27;;;;;;;;;43.25;36.00;;;;;8.68;61.70;103127.63;5079539;28;61976;-79
2022/01/26 03:41:13;;;;;;;;;60.50;40.50;;;;;8.67;61.16;103124.88;5083868;28;62207;-80
2022/01/26 03:43:39;;;;;;;;;44.75;31.75;;;;;8.68;61.74;103124.13;5084773;28;61809;-80
2022/01/26 03:46:04;;;;;;;;;50.75;33.50;;;;;8.66;61.18;103123.97;5084350;28;61764;-80
2022/01/26 03:48:30;;;;;;;;;57.50;40.00;;;;;8.72;61.67;103137.59;5085087;28;61826;-80
2022/01/26 03:50:55;;;;;;;;;47.50;38.00;;;;;8.70;61.14;103130.41;5084661;28;62172;-80
2022/01/26 03:53:20;;;;;;;;;53.75;37.50;;;;;8.69;61.47;103123.31;5084354;28;61993;-80
2022/01/26 03:55:46;;;;;;;;;57.50;39.75;;;;;8.72;61.13;103134.03;5100405;27;62033;-79
2022/01/26 03:58:11;;;;;;;;;52.75;37.00;;;;;8.73;61.72;103131.56;5084778;28;61734;-80
2022/01/26 04:00:37;;;;;;;;;60.50;38.25;;;;;8.75;61.32;103135.25;5085162;27;61840;-79
2022/01/26 04:03:03;;;;;;;;;50.25;36.00;;;;;8.76;61.43;103134.50;5083590;28;62660;-80
2022/01/26 04:05:29;;;;;;;;;60.25;40.00;;;;;8.77;61.66;103127.53;5084927;28;61824;-80
2022/01/26 04:08:00;;;;;;;;;58.50;35.75;;;;;8.80;61.40;103131.38;5084965;28;61873;-80
2022/01/26 04:11:20;;;;;;;;;54.75;42.25;;;;;8.77;60.86;103123.22;5083628;28;61905;-80
2022/01/26 04:13:14;;;;;;;;;58.00;40.25;;;;;8.91;61.29;103131.38;5078137;28;62053;-80
2022/01/26 04:15:40;;;;;;;;;55.50;37.50;;;;;8.88;60.95;103125.88;5084482;28;61795;-80
2022/01/26 04:18:09;;;;;;;;;54.25;38.00;;;;;8.89;61.01;103128.66;5083610;28;62351;-80
2022/01/26 04:20:40;;;;;;;;;40.50;33.50;;;;;8.84;60.78;103113.28;5083789;28;62167;-80
2022/01/26 04:25:34;;;;;;;;;65.67;41.33;;;;;8.85;61.29;103118.69;5084147;28;61966;-80
2022/01/26 04:28:08;;;;;;;;;49.33;33.33;;;;;8.88;60.96;103121.56;5084069;28;62003;-80
2022/01/26 04:30:33;;;;;;;;;64.67;41.33;;;;;8.90;60.91;103120.00;5083568;27;61704;-80
2022/01/26 04:33:03;;;;;;;;;51.75;41.25;;;;;8.90;60.91;103120.00;5081556;28;63817;-80
2022/01/26 04:35:29;;;;;;;;;54.50;37.75;;;;;8.89;60.94;103123.41;5082815;28;61728;-80
2022/01/26 04:40:49;;;;;;;;;57.67;40.67;;;;;8.93;60.72;103128.13;5084682;28;61619;-80
2022/01/26 04:43:20;;;;;;;;;55.33;43.33;;;;;8.94;61.11;103110.72;5083567;28;62570;-80
2022/01/26 04:45:45;;;;;;;;;57.67;41.00;;;;;8.95;60.67;103113.44;5084362;28;61818;-80
2022/01/26 04:48:11;;;;;;;;;46.33;41.33;;;;;8.95;60.82;103113.44;5083197;28;62030;-80
2022/01/26 04:50:36;;;;;;;;;49.50;40.75;;;;;8.91;60.36;103120.91;5084348;28;61746;-80
2022/01/26 04:53:02;;;;;;;;;65.75;43.00;;;;;8.91;60.80;103119.22;5083465;28;62560;-80
2022/01/26 04:55:28;;;;;;;;;58.00;41.33;;;;;8.87;60.54;103109.25;5083779;28;61700;-80
2022/01/26 04:57:53;;;;;;;;;57.75;40.75;;;;;8.92;60.59;103117.50;5082625;28;61812;-80
2022/01/26 05:00:19;;;;;;;;;62.67;42.67;;;;;8.83;60.87;103101.00;5083958;28;62026;-80
2022/01/26 05:02:45;;;;;;;;;60.33;41.33;;;;;8.72;61.24;103120.97;5081302;28;64148;-80
2022/01/26 05:05:10;;;;;;;;;60.33;46.33;;;;;8.52;62.13;103122.72;5083675;28;61791;-80
2022/01/26 05:07:36;;;;;;;;;54.33;43.33;;;;;8.37;62.79;103119.59;5083844;28;61772;-80
2022/01/26 05:10:03;;;;;;;;;56.67;42.33;;;;;8.36;62.37;103114.22;5084236;28;61824;-80
2022/01/26 05:12:28;;;;;;;;;57.33;44.67;;;;;8.47;63.00;103110.00;5081773;28;63900;-80
2022/01/26 05:14:54;;;;;;;;;56.67;42.67;;;;;8.59;62.80;103116.31;5082288;28;62020;-80
2022/01/26 05:17:21;;;;;;;;;71.00;49.33;;;;;8.47;61.84;103116.16;5083144;27;61844;-80
2022/01/26 05:19:47;;;;;;;;;75.00;48.67;;;;;8.43;61.85;103123.59;5082810;28;61823;-80
2022/01/26 05:22:13;;;;;;;;;58.00;43.33;;;;;8.43;60.92;103113.13;5081381;28;63776;-80
2022/01/26 05:24:39;;;;;;;;;79.33;46.00;;;;;8.36;61.69;103117.75;5083582;28;61701;-80
2022/01/26 05:27:05;;;;;;;;;69.33;48.67;;;;;8.33;62.45;103112.25;5083439;28;61847;-80
2022/01/26 05:29:30;;;;;;;;;67.00;45.67;;;;;8.41;62.53;103106.81;5099329;27;62222;-80
2022/01/26 05:31:56;;;;;;;;;69.00;45.67;;;;;8.48;62.06;103103.97;5080803;28;64805;-80
2022/01/26 05:34:21;;;;;;;;;68.00;49.33;;;;;8.54;61.51;103096.69;5083024;28;61804;-80
2022/01/26 05:36:47;;;;;;;;;75.67;52.67;;;;;8.64;61.72;103101.97;5081761;28;61874;-80
2022/01/26 05:39:12;;;;;;;;;56.67;48.67;;;;;8.67;61.12;103089.13;5082004;28;62183;-80
2022/01/26 05:41:39;;;;;;;;;67.67;49.67;;;;;8.76;61.58;103099.50;5082536;28;61751;-80
2022/01/26 05:44:06;;;;;;;;;68.00;49.67;;;;;8.81;61.66;103098.22;5083461;27;61947;-80
2022/01/26 05:46:38;;;;;;;;;61.67;44.67;;;;;8.84;61.37;103101.09;5081086;28;62036;-80
2022/01/26 05:49:04;;;;;;;;;71.67;54.33;;;;;8.83;60.48;103099.28;5083398;28;61767;-80
2022/01/26 05:51:32;;;;;;;;;76.00;52.33;;;;;8.88;60.69;103102.31;5098342;27;65096;-80
2022/01/26 05:53:58;;;;;;;;;78.33;52.00;;;;;8.91;60.84;103105.19;5083395;27;61759;-80
2022/01/26 05:56:23;;;;;;;;;69.00;51.00;;;;;8.94;60.72;103105.47;5081040;28;62012;-80
2022/01/26 05:58:49;;;;;;;;;76.67;54.67;;;;;8.93;60.52;103104.56;5083077;28;62002;-80
2022/01/26 06:01:15;;;;;;;;;74.33;49.00;;;;;8.97;60.23;103104.03;5114797;27;61917;-80
2022/01/26 06:03:41;;;;;;;;;71.00;49.00;;;;;8.97;59.87;103108.34;5083199;28;61698;-80
2022/01/26 06:06:06;;;;;;;;;74.00;54.00;;;;;8.95;59.63;103110.81;5081661;28;61759;-80
2022/01/26 06:08:32;;;;;;;;;70.67;49.00;;;;;9.01;60.13;103115.69;5082840;27;62120;-80
2022/01/26 06:10:59;;;;;;;;;73.00;49.33;;;;;9.04;59.96;103108.13;5082216;27;61804;-77
2022/01/26 06:13:24;;;;;;;;;65.00;47.33;;;;;9.07;60.16;103112.72;5081378;28;61776;-85
2022/01/26 06:15:50;;;;;;;;;76.33;52.67;;;;;9.05;59.17;103120.44;5082473;28;61875;-86
2022/01/26 06:18:16;;;;;;;;;78.00;54.67;;;;;8.95;59.49;103109.91;5098033;27;61909;-85
2022/01/26 06:20:41;;;;;;;;;83.00;54.67;;;;;9.01;59.88;103127.09;5080384;28;63868;-85
2022/01/26 06:23:07;;;;;;;;;81.00;58.00;;;;;9.02;60.52;103120.16;5082966;28;61931;-88
2022/01/26 06:25:33;;;;;;;;;81.67;57.67;;;;;9.08;60.43;103130.25;5080809;28;61927;-84
2022/01/26 06:28:00;;;;;;;;;75.67;55.33;;;;;9.11;59.81;103138.41;5082730;28;61744;-81
2022/01/26 06:30:26;;;;;;;;;74.33;51.00;;;;;9.08;59.24;103138.13;5096878;27;64726;-82
2022/01/26 06:32:52;;;;;;;;;75.33;54.67;;;;;9.08;59.61;103151.22;5080059;28;61954;-84
2022/01/26 06:35:18;;;;;;;;;68.67;53.00;;;;;9.09;59.61;103153.06;5077398;28;62224;-85
2022/01/26 06:37:44;;;;;;;;;68.33;51.33;;;;;9.08;59.75;103151.22;5081821;27;61792;-84
2022/01/26 06:40:10;;;;;;;;;70.67;51.67;;;;;9.04;60.04;103155.28;5076415;28;61913;-81
2022/01/26 06:42:49;;;;;;;;;71.67;51.67;;;;;9.67;58.37;103158.16;5077631;28;61952;-79
2022/01/26 06:45:18;;;;;;;;;76.67;53.67;;;;;9.02;59.33;103164.72;5081115;28;61735;-79
2022/01/26 06:50:15;;;;;;;;;75.00;55.67;;;;;9.03;59.64;103170.84;5081488;27;61802;-79
2022/01/26 06:52:43;;;;;;;;;82.33;57.00;;;;;9.01;59.50;103169.00;5082005;27;62134;-78
2022/01/26 06:55:09;;;;;;;;;71.67;52.67;;;;;8.94;59.31;103166.63;5084986;28;61818;-82
2022/01/26 06:57:35;;;;;;;;;68.33;52.67;;;;;8.95;59.45;103175.41;5085215;28;61911;-85
2022/01/26 07:00:01;;;;;;;;;71.67;53.00;;;;;8.95;59.70;103171.06;5081712;27;63552;-85
2022/01/26 07:02:26;;;;;;;;;71.00;50.00;;;;;8.98;59.78;103173.06;5081747;28;62682;-82
2022/01/26 07:04:53;;;;;;;;;76.33;57.00;;;;;9.01;60.04;103179.47;5066468;27;61822;-83
2022/01/26 07:07:18;;;;;;;;;74.33;53.33;;;;;9.06;59.48;103178.97;5084620;27;61981;-82
2022/01/26 07:09:44;;;;;;;;;71.67;54.00;;;;;9.03;59.88;103166.53;5084658;27;61993;-83
2022/01/26 07:12:09;;;;;;;;;73.00;53.67;;;;;9.02;59.83;103164.72;5085383;27;62170;-83
2022/01/26 07:22:51;;;;;;;;;76.00;55.00;;;;;9.08;60.01;103148.59;5042344;28;61863;-83
2022/01/26 07:25:17;;;;;;;;;71.67;49.00;;;;;9.09;59.68;103155.69;5041998;28;61852;-83
2022/01/26 07:27:42;;;;;;;;;74.00;54.33;;;;;9.16;59.50;103160.66;5025324;28;62078;-83
2022/01/26 07:30:09;;;;;;;;;81.00;57.33;;;;;9.17;59.83;103166.06;5024942;28;64727;-83
2022/01/26 07:32:36;;;;;;;;;70.00;51.00;;;;;9.19;59.85;103161.88;5042951;28;62216;-83
2022/01/26 07:35:05;;;;;;;;;70.67;50.67;;;;;9.24;59.24;103166.59;5045670;28;61927;-82
2022/01/26 07:37:31;;;;;;;;;74.67;49.00;;;;;9.21;59.41;103172.47;5045462;28;62077;-83
2022/01/26 07:40:09;;;;;;;;;71.67;51.33;;;;;9.24;59.51;103163.97;5025005;28;63939;-83
2022/01/26 07:42:36;;;;;;;;;72.33;52.33;;;;;9.23;59.18;103162.13;5025102;28;62067;-82
2022/01/26 07:45:04;;;;;;;;;68.00;50.33;;;;;9.28;58.80;103166.09;5042401;28;62030;-83
2022/01/26 07:47:31;;;;;;;;;69.67;54.33;;;;;9.28;60.11;103177.50;5041953;28;62066;-82
2022/01/26 07:49:58;;;;;;;;;77.67;54.67;;;;;9.33;59.28;103180.50;5024197;28;64702;-83
2022/01/26 07:52:25;;;;;;;;;66.33;50.00;;;;;9.32;59.00;103176.97;5072523;28;61887;-87
2022/01/26 07:54:52;;;;;;;;;70.33;52.67;;;;;9.37;59.51;103188.78;5083413;28;61819;-82
2022/01/26 07:57:19;;;;;;;;;78.33;55.33;;;;;9.38;59.40;103192.31;5099612;27;62137;-83
2022/01/26 07:59:44;;;;;;;;;75.67;55.33;;;;;9.39;59.39;103191.53;5083672;28;61835;-82
2022/01/26 08:02:10;;;;;;;;;69.67;53.33;;;;;9.41;59.37;103190.88;5082602;28;61736;-84
2022/01/26 08:04:35;;;;;;;;;79.67;54.67;;;;;9.44;59.15;103184.97;5081855;27;62512;-85
2022/01/26 08:07:00;;;;;;;;;70.67;52.67;;;;;9.47;59.38;103163.34;5099989;27;62023;-84
2022/01/26 08:09:26;;;;;;;;;67.67;53.33;;;;;9.48;59.08;103153.00;5079763;28;64573;-84
2022/01/26 08:11:51;;;;;;;;;64.67;48.00;;;;;9.48;58.61;103154.72;5082545;28;61936;-84
2022/01/26 08:14:17;;;;;;;;;82.00;54.33;;;;;9.51;59.37;103163.78;5084188;28;62519;-84
2022/01/26 08:16:43;;;;;;;;;76.00;54.00;;;;;9.51;58.97;103161.16;5084055;28;61979;-83
2022/01/26 08:19:09;;;;;;;;;80.33;51.00;;;;;9.56;58.49;103164.19;5083492;28;61891;-84
2022/01/26 08:21:34;;;;;;;;;81.67;53.00;;;;;9.58;59.23;103155.66;5084867;28;61760;-84
2022/01/26 08:24:03;;;;;;;;;75.00;55.33;;;;;9.62;59.05;103149.88;5084036;28;61916;-81
2022/01/26 08:26:39;;;;;;;;;70.67;51.33;;;;;9.66;58.95;103153.69;5084586;27;62050;-81
2022/01/26 08:29:12;;;;;;;;;68.00;49.67;;;;;9.71;59.17;103159.34;5083600;27;61781;-80
2022/01/26 08:31:38;;;;;;;;;81.33;53.67;;;;;9.72;58.68;103153.28;5113516;27;61944;-82
2022/01/26 08:34:03;;;;;;;;;68.67;51.00;;;;;9.77;58.43;103149.38;5082742;28;61881;-81
2022/01/26 08:36:28;;;;;;;;;64.67;50.67;;;;;9.79;59.11;103150.41;5081831;27;61910;-81
2022/01/26 08:38:54;;;;;;;;;64.33;50.00;;;;;9.82;58.70;103155.94;5082930;28;63022;-82
2022/01/26 08:41:19;;;;;;;;;69.67;50.00;;;;;9.80;58.48;103153.16;5084173;27;61739;-81
2022/01/26 08:43:45;;;;;;;;;63.67;50.00;;;;;9.82;58.69;103166.41;5084421;28;62310;-81
2022/01/26 08:46:10;;;;;;;;;79.00;54.33;;;;;9.85;58.64;103158.78;5084041;28;61717;-82
2022/01/26 08:48:36;;;;;;;;;73.33;53.00;;;;;9.87;58.98;103169.44;5098949;27;63953;-81
2022/01/26 08:51:01;;;;;;;;;67.00;46.67;;;;;9.91;58.68;103179.41;5098949;27;61917;-81
2022/01/26 08:53:26;;;;;;;;;76.33;51.33;;;;;9.92;58.66;103183.84;5098681;27;61815;-81
2022/01/26 08:55:52;;;;;;;;;69.33;54.00;;;;;9.95;58.78;103190.28;5083728;28;62056;-82
2022/01/26 08:58:19;;;;;;;;;72.33;55.00;;;;;10.00;59.17;103190.66;5083003;27;62017;-82
2022/01/26 09:00:45;;;;;;;;;76.33;52.67;;;;;10.01;58.30;103187.28;5081777;27;61867;-86
2022/01/26 09:03:10;;;;;;;;;63.67;48.00;;;;;9.91;58.40;103180.31;5099407;27;62182;-86
2022/01/26 09:05:35;;;;;;;;;65.67;47.33;;;;;9.91;58.10;103180.31;5083929;28;62095;-85
2022/01/26 09:08:03;;;;;;;;;69.33;52.33;;;;;9.96;58.49;103185.94;5082832;28;62181;-86
2022/01/26 09:10:30;;;;;;;;;71.67;49.00;;;;;10.01;58.52;103198.69;5099643;27;61710;-86
2022/01/26 09:12:56;;;;;;;;;74.00;53.67;;;;;10.05;57.99;103199.88;5082496;28;62191;-86
2022/01/26 09:15:28;;;;;;;;;80.00;54.00;;;;;10.09;58.55;103204.59;5081745;28;61953;-86
2022/01/26 09:17:57;;;;;;;;;70.00;46.33;;;;;10.11;58.14;103204.69;5082334;28;61970;-86
2022/01/26 09:20:23;;;;;;;;;75.67;52.00;;;;;10.11;58.54;103209.94;5083679;27;61957;-86
2022/01/26 09:22:48;;;;;;;;;66.67;46.67;;;;;10.13;58.32;103216.25;5081533;28;61991;-86
2022/01/26 09:25:14;;;;;;;;;70.00;50.00;;;;;10.15;58.38;103217.31;5082480;27;61942;-87
2022/01/26 09:27:39;;;;;;;;;71.00;52.33;;;;;10.17;58.44;103207.84;5081419;27;62833;-86
2022/01/26 09:30:06;;;;;;;;;78.67;57.67;;;;;10.22;57.86;103223.22;5080502;28;61852;-87
2022/01/26 09:32:32;;;;;;;;;79.67;54.33;;;;;11.00;56.22;103210.44;5087266;27;62056;-86
2022/01/26 09:34:57;;;;;;;;;77.00;56.33;;;;;10.36;57.93;103213.00;5079671;28;62225;-87
2022/01/26 09:37:23;;;;;;;;;75.33;50.33;;;;;10.23;57.47;103195.25;5105063;27;63635;-87
2022/01/26 09:39:49;;;;;;;;;64.33;49.00;;;;;10.31;57.91;103210.00;5081040;28;62092;-86
2022/01/26 09:42:16;;;;;;;;;76.33;49.67;;;;;10.32;57.79;103209.19;5081451;27;61986;-80
2022/01/26 09:44:42;;;;;;;;;63.00;49.33;;;;;10.36;57.61;103224.41;5081548;28;61894;-78
2022/01/26 09:47:09;;;;;;;;;73.00;48.33;;;;;10.31;57.82;103216.94;5079867;27;61829;-78
2022/01/26 09:49:36;;;;;;;;;69.75;49.75;;;;;10.18;58.00;103210.63;5081300;27;62082;-78
2022/01/26 09:52:13;;;;;;;;;70.00;49.67;;;;;10.41;57.84;103235.28;5080730;27;62076;-78
2022/01/26 09:54:40;;;;;;;;;73.00;50.33;;;;;10.41;58.09;103236.25;5082805;28;62253;-78
2022/01/26 09:57:06;;;;;;;;;73.25;52.50;;;;;10.44;57.78;103241.72;5078660;28;62509;-78
2022/01/26 09:59:32;;;;;;;;;69.00;54.00;;;;;10.49;57.79;103244.75;5081885;27;61906;-78
2022/01/26 10:01:59;;;;;;;;;67.75;49.00;;;;;10.47;58.44;103243.69;5082125;27;61964;-78
2022/01/26 10:04:32;;;;;;;;;73.50;48.75;;;;;10.54;58.41;103235.56;5089249;27;62058;-78
2022/01/26 10:07:12;;;;;;;;;67.50;49.50;;;;;10.59;57.68;103235.94;5080375;27;61836;-78
2022/01/26 10:17:44;;;;;;;;;72.33;52.33;;;;;10.64;57.65;103238.13;5080249;28;61813;-78
2022/01/26 10:20:14;;;;;;;;;65.33;46.33;;;;;10.65;57.50;103228.59;5091201;27;61929;-78
2022/01/26 10:22:41;;;;;;;;;74.67;46.33;;;;;10.69;57.57;103235.94;5094397;27;62008;-78
2022/01/26 10:25:16;;;;;;;;;63.00;49.00;;;;;10.73;57.34;103222.25;5077812;28;61893;-78
2022/01/26 10:27:48;;;;;;;;;68.00;50.00;;;;;10.77;57.41;103229.56;5077179;28;61893;-77
2022/01/26 10:30:17;;;;;;;;;67.00;47.00;;;;;10.79;57.30;103214.84;5077641;28;61849;-78
2022/01/26 10:32:45;;;;;;;;;73.67;54.33;;;;;10.83;57.29;103209.06;5072324;28;61925;-78
2022/01/26 10:35:13;;;;;;;;;75.00;57.00;;;;;10.86;57.57;103200.50;5081470;27;61816;-78
2022/01/26 10:37:47;;;;;;;;;76.00;52.33;;;;;10.89;57.82;103213.00;5080884;27;63596;-78
2022/01/26 10:40:18;;;;;;;;;81.33;55.33;;;;;10.94;57.16;103233.59;5082298;28;62373;-78
2022/01/26 10:43:06;;;;;;;;;82.67;57.33;;;;;10.97;57.65;103246.09;5098111;27;62013;-78
2022/01/26 10:45:46;;;;;;;;;72.75;53.50;;;;;11.00;57.57;103223.59;5080402;28;61819;-78
2022/01/26 10:48:31;;;;;;;;;75.67;53.67;;;;;10.99;57.48;103216.53;5081159;28;62860;-79
2022/01/26 10:53:49;;;;;;;;;80.00;56.67;;;;;11.03;57.32;103222.91;5081918;27;61958;-80
2022/01/26 10:56:16;;;;;;;;;70.67;51.00;;;;;11.03;57.84;103209.78;5081564;27;61964;-78
2022/01/26 10:58:42;;;;;;;;;72.00;50.00;;;;;11.04;57.37;103198.50;5080092;28;61754;-78
2022/01/26 11:01:08;;;;;;;;;69.33;51.00;;;;;11.03;57.40;103194.97;5081517;28;61851;-78
2022/01/26 11:03:34;;;;;;;;;75.67;52.00;;;;;11.10;57.47;103213.81;5079105;28;61729;-78
2022/01/26 11:06:04;;;;;;;;;72.75;50.50;;;;;11.14;56.80;103203.72;5080498;27;62557;-78
2022/01/26 11:08:30;;;;;;;;;68.67;52.67;;;;;11.15;56.90;103207.25;5079485;27;62030;-80
2022/01/26 11:10:56;;;;;;;;;67.00;46.50;;;;;11.19;56.94;103201.44;5082049;27;61749;-83
2022/01/26 11:13:42;;;;;;;;;66.00;51.67;;;;;11.25;57.35;103199.31;5080607;28;61900;-82
2022/01/26 11:16:13;;;;;;;;;66.33;43.33;;;;;11.39;56.38;103201.31;5081677;27;61767;-81
2022/01/26 11:18:58;;;;;;;;;74.67;54.00;;;;;11.53;56.11;103193.63;5078727;28;62161;-77
2022/01/26 11:21:25;;;;;;;;;68.00;49.00;;;;;11.35;57.37;103179.91;5081522;28;61805;-78
2022/01/26 11:23:51;;;;;;;;;69.33;53.33;;;;;11.40;57.08;103175.97;5082023;28;62232;-78
2022/01/26 11:26:25;;;;;;;;;69.33;49.00;;;;;11.45;56.88;103175.50;5082309;27;61883;-77
2022/01/26 11:28:51;;;;;;;;;74.33;52.33;;;;;11.41;56.85;103178.69;5081179;28;61781;-75
2022/01/26 11:31:18;;;;;;;;;65.33;46.33;;;;;11.42;56.77;103171.75;5079748;28;61919;-75
2022/01/26 11:33:48;;;;;;;;;72.33;52.33;;;;;11.49;56.93;103186.28;5079789;28;62152;-77
2022/01/26 11:36:17;;;;;;;;;73.67;50.33;;;;;11.46;56.57;103184.31;5081362;27;61806;-76
2022/01/26 11:47:17;;;;;;;;;72.00;51.33;;;;;11.44;56.51;103164.91;5064082;28;61763;-78
2022/01/26 11:49:44;;;;;;;;;71.67;51.00;;;;;11.33;56.65;103164.00;5062211;28;61899;-77
2022/01/26 11:52:35;;;;;;;;;69.33;54.33;;;;;11.19;57.19;103151.50;5097432;27;61786;-79
2022/01/26 11:55:03;;;;;;;;;80.67;57.00;;;;;11.14;57.37;103153.75;5064791;28;61923;-78
2022/01/26 11:57:48;;;;;;;;;71.75;52.25;;;;;11.12;57.95;103143.91;5062682;28;62033;-78
2022/01/26 12:00:20;;;;;;;;;77.50;54.00;;;;;11.26;57.84;103135.41;5063768;28;62789;-78
2022/01/26 12:05:14;;;;;;;;;64.50;49.50;;;;;11.23;57.92;103137.81;5063545;28;61806;-76
2022/01/26 12:07:55;;;;;;;;;75.33;57.00;;;;;11.35;57.92;103132.59;5064739;28;61727;-81
2022/01/26 12:10:28;;;;;;;;;67.67;49.00;;;;;11.34;57.59;103118.53;5063800;28;61824;-79
2022/01/26 12:13:10;;;;;;;;;65.33;51.67;;;;;11.32;57.46;103121.84;5064463;28;61791;-78
2022/01/26 12:18:36;;;;;;;;;68.00;50.00;;;;;11.30;57.65;103131.31;5075301;28;61801;-86
2022/01/26 12:37:57;;;;;;;;;69.67;52.00;;;;;11.18;58.31;103113.78;5083662;27;61762;-78
2022/01/26 12:43:12;;;;;;;;;76.00;56.00;;;;;11.20;57.41;103129.66;5084001;28;62335;-81
2022/01/26 12:45:38;;;;;;;;;69.67;53.67;;;;;11.15;57.82;103131.03;5083786;27;61853;-78
2022/01/26 12:48:08;;;;;;;;;72.33;54.33;;;;;11.04;58.27;103140.66;5083947;27;62775;-78
2022/01/26 12:50:34;;;;;;;;;76.33;53.67;;;;;10.93;58.63;103141.53;5082129;28;61802;-81
2022/01/26 12:53:00;;;;;;;;;74.00;51.67;;;;;10.88;58.53;103141.13;5082125;28;65165;-80
2022/01/26 12:55:32;;;;;;;;;83.67;60.00;;;;;11.01;58.93;103135.16;5083644;28;61771;-78
2022/01/26 12:57:58;;;;;;;;;79.67;57.00;;;;;11.10;58.57;103134.97;5078452;28;61886;-78
2022/01/26 13:00:25;;;;;;;;;73.67;53.33;;;;;11.13;57.78;103132.59;5072022;28;61856;-78
2022/01/26 13:02:52;;;;;;;;;66.00;46.00;;;;;11.00;57.68;103128.06;5073948;28;64715;-78
2022/01/26 13:05:26;;;;;;;;;74.67;52.33;;;;;11.03;58.22;103120.41;5083643;27;61830;-78
2022/01/26 13:08:00;;;;;;;;;75.67;52.67;;;;;10.98;58.28;103116.53;5064338;28;62144;-78
2022/01/26 13:10:26;;;;;;;;;65.33;51.67;;;;;11.12;57.79;103120.25;5063508;28;61922;-78
2022/01/26 13:12:51;;;;;;;;;81.00;56.67;;;;;10.87;58.61;103120.00;5061389;28;63737;-78
2022/01/26 13:15:26;;;;;;;;;61.33;45.33;;;;;10.92;58.39;103124.81;5072855;28;61839;-78
2022/01/26 13:18:05;;;;;;;;;74.33;54.00;;;;;10.82;58.88;103109.13;5098719;27;61975;-78
2022/01/26 13:28:33;;;;;;;;;74.00;55.33;;;;;10.87;59.28;103106.88;5083813;27;62152;-78
2022/01/26 13:37:28;;;;;;;;;75.33;56.33;;;;;10.87;59.53;103109.50;5081246;28;61878;-78
2022/01/26 13:47:58;;;;;;;;;77.33;50.00;;;;;10.63;59.19;103118.13;5019642;28;61860;-78
2022/01/26 13:50:26;;;;;;;;;82.33;52.33;;;;;10.69;59.53;103122.03;5020293;28;61992;-78
2022/01/26 13:53:05;;;;;;;;;59.33;47.67;;;;;10.62;59.62;103118.00;5003580;28;61887;-78
2022/01/26 14:00:57;;;;;;;;;65.00;50.00;;;;;10.70;59.04;103113.38;5019817;28;62050;-78
2022/01/26 14:03:25;;;;;;;;;76.00;49.00;;;;;10.56;59.08;103099.09;5019899;28;61913;-78
2022/01/26 14:05:50;;;;;;;;;63.50;47.50;;;;;10.63;58.87;103097.13;5002368;28;63662;-78
2022/01/26 14:08:16;;;;;;;;;65.50;48.00;;;;;10.72;58.73;103104.81;5019773;28;61940;-78
2022/01/26 14:10:44;;;;;;;;;73.67;53.33;;;;;10.78;58.97;103094.81;5002353;28;61893;-78
2022/01/26 14:13:10;;;;;;;;;68.00;48.75;;;;;10.90;59.07;103093.97;5002779;28;62050;-78
2022/01/26 14:15:41;;;;;;;;;61.25;44.75;;;;;10.92;58.55;103092.38;5002365;28;64522;-78